Time;durP1;ratioP1;P1;durP2;ratioP2;P2;SDS_P1;SDS_P2;PMS_P1;PMS_P2;Temp;Humidity;BMP_temperature;BMP_pressure;BME280_temperature;BME280_humidity;BME280_pressure;Samples;Min_cycle;Max_cycle;Signal;HPM_P1;HPM_P2
2022/04/15 00:02:25;;;;;;;5.40;2.23;;;8.30;61.20;;;6.68;55.13;100456.16;10336381;28;96402;-81
2022/04/15 00:07:28;;;;;;;5.83;2.80;;;8.30;61.50;;;6.62;55.58;100454.06;10351676;28;97249;-81
2022/04/15 00:12:34;;;;;;;4.53;2.37;;;8.20;61.20;;;6.54;55.04;100443.34;10361863;28;96475;-81
2022/04/15 00:17:37;;;;;;;5.10;2.30;;;8.20;61.20;;;6.48;55.20;100443.03;10350976;28;96714;-81
2022/04/15 00:22:40;;;;;;;5.23;2.40;;;8.10;61.80;;;6.40;56.43;100436.63;10362382;28;96585;-80
2022/04/15 00:27:43;;;;;;;6.13;2.83;;;8.10;62.10;;;6.35;58.13;100438.81;10378919;28;98189;-81
2022/04/15 00:32:46;;;;;;;6.07;2.50;;;8.00;63.40;;;6.30;57.57;100442.88;10322569;28;96477;-81
2022/04/15 00:37:49;;;;;;;5.77;2.33;;;7.90;63.00;;;6.22;57.33;100429.50;10349668;28;96559;-81
2022/04/15 00:42:52;;;;;;;6.00;2.20;;;7.90;63.10;;;6.14;58.27;100424.88;10344941;28;96838;-81
2022/04/15 00:48:00;;;;;;;5.53;1.93;;;7.80;65.80;;;6.13;56.73;100421.41;10359320;28;96525;-81
2022/04/15 00:53:12;;;;;;;3.43;2.00;;;7.70;63.10;;;6.17;56.72;100422.81;10332924;28;97070;-81
2022/04/15 00:58:18;;;;;;;3.27;2.00;;;7.80;63.00;;;6.17;56.77;100416.69;10361190;28;97268;-81
2022/04/15 01:03:22;;;;;;;5.17;2.10;;;7.80;63.30;;;6.12;57.23;100414.47;10328487;28;96647;-81
2022/04/15 01:08:30;;;;;;;5.07;2.17;;;7.70;63.40;;;6.07;57.92;100411.41;10350796;28;96665;-81
2022/04/15 01:13:36;;;;;;;6.50;2.37;;;7.70;63.70;;;6.03;58.03;100415.25;10359899;28;97136;-81
2022/04/15 01:18:39;;;;;;;6.27;2.53;;;7.70;64.30;;;5.95;58.22;100409.84;10292948;28;96654;-81
2022/04/15 01:23:42;;;;;;;5.57;2.23;;;7.60;65.00;;;5.89;57.89;100402.41;10329717;28;96551;-80
2022/04/15 01:28:45;;;;;;;3.97;2.13;;;7.50;64.60;;;5.80;58.69;100405.84;10338077;28;96642;-81
2022/04/15 01:33:48;;;;;;;5.30;2.17;;;7.50;65.70;;;5.74;59.58;100398.44;10324638;28;96557;-80
2022/04/15 01:38:52;;;;;;;5.07;1.80;;;7.40;66.60;;;5.63;59.78;100397.56;10349168;28;96546;-81
2022/04/15 01:43:55;;;;;;;4.83;2.00;;;7.30;67.10;;;5.59;59.83;100401.44;10368647;28;96592;-81
2022/04/15 01:48:58;;;;;;;4.97;2.40;;;7.20;66.90;;;5.49;59.94;100387.38;10309876;28;97392;-81
2022/04/15 01:54:03;;;;;;;4.53;2.50;;;7.20;67.90;;;5.47;59.52;100396.38;10334110;28;96451;-81
2022/04/15 01:59:09;;;;;;;5.50;2.20;;;7.10;66.80;;;5.40;60.38;100398.72;10358046;28;96521;-80
2022/04/15 02:04:12;;;;;;;7.00;2.90;;;7.10;68.20;;;5.33;61.28;100394.91;10380301;28;96473;-81
2022/04/15 02:09:16;;;;;;;6.77;2.80;;;7.00;68.90;;;5.31;61.91;100386.28;10387966;28;98187;-81
2022/04/15 02:14:20;;;;;;;5.77;3.00;;;6.90;70.10;;;5.28;61.36;100381.31;10344227;28;97556;-81
2022/04/15 02:19:23;;;;;;;8.37;2.63;;;6.90;69.50;;;5.26;60.99;100383.22;10337302;28;96582;-80
2022/04/15 02:24:26;;;;;;;7.50;2.70;;;6.90;69.40;;;5.23;61.50;100388.75;10356545;28;96531;-81
2022/04/15 02:29:29;;;;;;;6.13;2.63;;;6.90;70.00;;;5.25;61.89;100386.81;10352196;28;96449;-81
2022/04/15 02:34:32;;;;;;;8.10;2.63;;;6.90;69.90;;;5.28;61.15;100381.31;10339173;28;96452;-81
2022/04/15 02:39:35;;;;;;;5.37;2.60;;;6.90;70.00;;;5.24;62.04;100385.16;10312822;28;96504;-80
2022/04/15 02:44:38;;;;;;;4.77;2.60;;;6.90;70.90;;;5.16;62.29;100387.56;10357196;28;96543;-81
2022/04/15 02:49:41;;;;;;;9.87;2.50;;;6.80;72.10;;;5.12;62.58;100383.53;10329549;28;96596;-80
2022/04/15 02:54:44;;;;;;;4.43;2.50;;;6.70;71.10;;;5.13;62.41;100391.31;10365154;28;96559;-80
2022/04/15 02:59:47;;;;;;;6.27;2.70;;;6.70;71.80;;;5.12;62.65;100387.00;10363697;28;96430;-80
2022/04/15 03:04:50;;;;;;;6.43;2.70;;;6.70;72.20;;;5.09;62.49;100388.09;10339085;28;96633;-80
2022/04/15 03:09:53;;;;;;;10.67;4.90;;;6.70;72.20;;;5.07;63.07;100387.38;10375324;28;96571;-79
2022/04/15 03:14:56;;;;;;;5.80;3.30;;;6.70;73.30;;;5.02;63.41;100386.94;10349080;28;96505;-80
2022/04/15 03:20:03;;;;;;;5.90;3.00;;;6.70;74.20;;;4.97;63.30;100396.16;10338430;28;96592;-83
2022/04/15 03:25:17;;;;;;;6.70;3.20;;;6.60;74.40;;;4.89;63.02;100385.44;10353771;28;96610;-84
2022/04/15 03:30:20;;;;;;;4.67;2.47;;;6.60;74.30;;;4.87;63.84;100392.66;10338598;28;96988;-82
2022/04/15 03:35:23;;;;;;;4.17;2.47;;;6.50;75.80;;;4.82;64.13;100385.13;10337416;28;96526;-81
2022/04/15 03:40:26;;;;;;;7.43;2.73;;;6.50;75.70;;;4.78;64.27;100386.31;10316747;28;96564;-81
2022/04/15 03:45:30;;;;;;;4.07;2.50;;;6.40;75.80;;;4.73;64.34;100385.88;10346566;28;96786;-83
2022/04/15 03:50:33;;;;;;;5.50;2.50;;;6.40;77.90;;;4.70;64.68;100384.31;10335518;28;97292;-81
2022/04/15 03:55:37;;;;;;;5.03;2.50;;;6.40;77.80;;;4.68;64.38;100391.53;10356298;28;97629;-82
2022/04/15 04:00:40;;;;;;;5.57;2.70;;;6.30;77.40;;;4.69;64.58;100376.56;10326993;28;97015;-81
2022/04/15 04:05:43;;;;;;;5.13;2.70;;;6.30;78.10;;;4.68;64.44;100373.09;10336139;28;96605;-81
2022/04/15 04:10:46;;;;;;;5.40;2.40;;;6.30;78.80;;;4.71;64.63;100377.25;10352904;28;96676;-81
2022/04/15 04:15:49;;;;;;;5.90;3.23;;;6.30;78.70;;;4.76;64.55;100375.09;10356177;28;96575;-81
2022/04/15 04:20:52;;;;;;;8.70;2.53;;;6.40;79.80;;;4.85;65.71;100374.31;10389619;28;96554;-81
2022/04/15 04:25:55;;;;;;;4.90;2.80;;;6.50;80.40;;;4.91;65.80;100380.88;10359213;28;96563;-81
2022/04/15 04:30:58;;;;;;;8.40;3.10;;;6.50;83.50;;;5.01;66.43;100379.16;10340186;28;97136;-81
2022/04/15 04:36:02;;;;;;;5.93;3.10;;;6.60;84.60;;;5.12;66.25;100376.47;10376650;28;96418;-81
2022/04/15 04:41:05;;;;;;;6.20;2.97;;;6.60;86.50;;;5.27;66.07;100380.44;10372025;28;96928;-81
2022/04/15 04:46:08;;;;;;;8.10;3.43;;;6.70;85.70;;;5.40;65.82;100380.25;10352991;28;96554;-81
2022/04/15 04:51:11;;;;;;;7.70;3.70;;;6.80;86.30;;;5.56;65.38;100393.78;10336946;28;96694;-80
2022/04/15 04:56:15;;;;;;;5.73;3.30;;;7.00;85.70;;;5.71;65.27;100391.66;10363475;28;96587;-79
2022/04/15 05:01:18;;;;;;;8.53;3.20;;;7.10;86.70;;;5.88;64.93;100388.41;10344032;28;96602;-81
2022/04/15 05:06:20;;;;;;;7.63;3.80;;;7.20;85.80;;;6.06;65.12;100395.72;10292615;28;96465;-80
2022/04/15 05:11:24;;;;;;;6.00;3.03;;;7.40;86.00;;;6.23;64.35;100389.75;10313383;28;97749;-81
2022/04/15 05:16:27;;;;;;;6.47;3.20;;;7.60;85.70;;;6.45;64.62;100399.28;10339163;28;98335;-81
2022/04/15 05:21:30;;;;;;;5.00;2.90;;;7.80;86.00;;;6.68;64.37;100394.56;10346949;28;96580;-81
2022/04/15 05:26:34;;;;;;;6.53;3.83;;;8.00;85.90;;;6.92;64.42;100394.16;10333771;28;96507;-81
2022/04/15 05:31:37;;;;;;;5.77;3.67;;;8.20;85.50;;;7.20;64.13;100390.66;10330023;28;97216;-82
2022/04/15 05:36:40;;;;;;;12.37;4.60;;;8.50;85.60;;;7.50;62.92;100391.44;10303884;28;96465;-82
2022/04/15 05:41:43;;;;;;;9.47;4.20;;;8.70;84.50;;;7.77;61.91;100386.19;10292128;28;97011;-81
2022/04/15 05:46:46;;;;;;;7.60;3.40;;;9.00;84.00;;;8.08;61.06;100385.09;10340362;28;96932;-82
2022/04/15 05:51:49;;;;;;;6.30;3.87;;;9.20;83.10;;;8.38;60.56;100386.63;10334372;28;96719;-81
2022/04/15 05:56:52;;;;;;;6.43;3.67;;;9.50;82.10;;;8.70;59.54;100386.97;10332014;28;96565;-81
2022/04/15 06:01:55;;;;;;;6.97;3.57;;;9.80;81.00;;;8.98;57.58;100393.00;10314702;28;97050;-81
2022/04/15 06:06:58;;;;;;;6.83;4.03;;;10.10;78.80;;;9.29;56.94;100396.06;10291962;28;96350;-81
2022/04/15 06:12:01;;;;;;;6.33;3.40;;;10.40;77.70;;;9.65;57.02;100385.34;10315916;28;96457;-81
2022/04/15 06:17:04;;;;;;;7.67;3.73;;;10.70;77.40;;;9.98;55.73;100380.22;10334926;28;96521;-81
2022/04/15 06:22:07;;;;;;;6.53;3.47;;;11.10;76.30;;;10.23;54.55;100382.00;10329434;28;97415;-81
2022/04/15 06:27:10;;;;;;;6.83;3.73;;;11.30;74.90;;;10.45;53.52;100384.06;10341578;28;96553;-81
2022/04/15 06:32:13;;;;;;;8.50;4.50;;;11.60;73.60;;;10.75;52.27;100379.13;10322449;28;96732;-81
2022/04/15 06:37:16;;;;;;;9.90;4.20;;;11.90;72.80;;;11.11;51.21;100370.84;10334664;28;96587;-81
2022/04/15 06:42:24;;;;;;;9.87;4.43;;;12.20;70.90;;;11.59;51.85;100367.25;10331761;28;96700;-82
2022/04/15 06:47:27;;;;;;;7.43;3.90;;;12.60;70.50;;;12.09;49.16;100376.78;10298388;28;96695;-81
2022/04/15 06:52:30;;;;;;;8.43;3.97;;;13.10;68.50;;;12.42;47.39;100369.44;10314769;28;96530;-81
2022/04/15 06:57:33;;;;;;;9.20;4.47;;;13.40;66.60;;;12.69;48.29;100368.09;10356023;28;96609;-81
2022/04/15 07:02:36;;;;;;;8.20;4.20;;;13.70;66.30;;;12.97;47.70;100365.72;10350774;28;97476;-81
2022/04/15 07:07:40;;;;;;;9.43;4.80;;;14.00;65.20;;;13.34;44.93;100358.75;10382193;28;96507;-81
2022/04/15 07:12:43;;;;;;;7.17;4.73;;;14.40;62.80;;;13.60;44.30;100372.50;10377624;28;96470;-82
2022/04/15 07:17:46;;;;;;;9.40;4.90;;;14.70;61.80;;;13.86;44.28;100364.03;10342126;28;96629;-81
2022/04/15 07:23:00;;;;;;;8.07;4.78;;;14.90;60.80;;;14.01;43.04;100355.19;10340470;28;98132;-81
2022/04/15 07:28:04;;;;;;;12.38;4.85;;;15.20;59.00;;;14.43;43.16;100359.78;10339956;28;97391;-82
2022/04/15 07:33:08;;;;;;;9.48;4.85;;;15.50;59.00;;;14.75;42.18;100365.69;10341679;28;98513;-82
2022/04/15 07:38:11;;;;;;;11.25;4.75;;;15.80;58.20;;;14.87;41.01;100377.53;10355042;28;96645;-82
2022/04/15 07:43:14;;;;;;;9.70;5.03;;;16.00;56.80;;;14.89;39.71;100380.88;10330265;28;96896;-83
2022/04/15 07:48:17;;;;;;;8.65;4.80;;;16.10;55.90;;;15.02;40.10;100380.16;10350106;28;96605;-83
2022/04/15 07:53:20;;;;;;;14.80;7.93;;;16.20;55.40;;;15.17;40.42;100387.09;10349429;28;96404;-83
2022/04/15 07:58:23;;;;;;;14.18;5.60;;;16.30;55.50;;;15.38;39.83;100390.75;10361638;28;96695;-82
2022/04/15 08:03:29;;;;;;;13.13;6.07;;;16.50;55.20;;;15.41;39.15;100393.88;10335826;28;97281;-82
2022/04/15 08:08:32;;;;;;;15.07;5.82;;;16.60;54.20;;;15.66;39.51;100390.78;10311728;28;96669;-84
2022/04/15 08:13:35;;;;;;;12.52;5.15;;;16.70;54.00;;;15.68;38.66;100394.91;10359728;28;96717;-85
2022/04/15 08:18:38;;;;;;;8.13;4.68;;;16.80;53.30;;;15.61;38.40;100399.38;10344930;28;96795;-84
2022/04/15 08:23:41;;;;;;;8.82;4.70;;;16.80;53.10;;;15.50;37.20;100398.06;10331622;28;96842;-82
2022/04/15 08:28:44;;;;;;;11.90;4.45;;;16.80;51.40;;;15.82;38.78;100390.44;10336888;28;97202;-83
2022/04/15 08:33:47;;;;;;;10.57;5.80;;;16.90;52.30;;;16.15;39.11;100390.63;10364458;28;96888;-83
2022/04/15 08:38:49;;;;;;;8.35;5.25;;;17.20;52.70;;;16.60;37.66;100399.03;10390471;28;98226;-83
2022/04/15 08:43:54;;;;;;;8.60;5.70;;;17.60;52.10;;;17.24;38.40;100390.50;10350243;28;96373;-83
2022/04/15 08:49:00;;;;;;;7.80;5.28;;;18.20;52.40;;;17.81;36.32;100386.34;10330138;28;96746;-83
2022/04/15 08:54:07;;;;;;;13.20;6.18;;;18.70;51.30;;;17.86;34.02;100383.81;10322360;28;96508;-84
2022/04/15 08:59:10;;;;;;;9.13;6.22;;;18.80;48.40;;;18.11;33.45;100377.75;10331334;28;96985;-88
2022/04/15 09:04:14;;;;;;;9.88;6.32;;;19.10;48.20;;;18.40;33.40;100382.59;10348779;28;96669;-84
2022/04/15 09:09:17;;;;;;;7.75;5.30;;;19.40;47.90;;;18.64;32.32;100381.00;10325441;28;96572;-82
2022/04/15 09:14:20;;;;;;;9.00;5.43;;;19.70;47.10;;;18.78;32.90;100376.41;10338372;28;98324;-83
2022/04/15 09:19:23;;;;;;;7.25;4.07;;;19.80;46.90;;;18.71;31.35;100360.31;10325725;28;96652;-83
2022/04/15 09:24:34;;;;;;;7.75;4.13;;;19.90;45.80;;;18.60;30.67;100357.47;10349605;28;96518;-83
2022/04/15 09:29:40;;;;;;;6.70;3.58;;;19.80;44.20;;;18.52;30.24;100368.44;10342801;28;96663;-82
2022/04/15 09:35:03;;;;;;;11.05;5.38;;;19.70;44.10;;;18.38;32.66;100370.41;10336851;28;97129;-89
2022/04/15 09:40:18;;;;;;;10.00;5.38;;;19.50;45.50;;;18.12;32.16;100374.03;10325926;28;96648;-89
2022/04/15 09:45:34;;;;;;;12.30;5.93;;;19.40;45.20;;;17.75;32.22;100372.91;10367220;28;98223;-84
2022/04/15 09:50:41;;;;;;;8.65;5.40;;;19.00;44.90;;;17.74;32.34;100364.00;10333081;28;96433;-83
2022/04/15 09:55:50;;;;;;;9.60;5.28;;;18.90;45.00;;;18.01;32.19;100347.81;10334173;28;96579;-82
2022/04/15 10:00:53;;;;;;;7.07;4.00;;;19.10;45.10;;;18.28;32.98;100327.81;10358156;28;96881;-82
2022/04/15 10:05:58;;;;;;;8.32;3.88;;;19.30;45.50;;;18.34;31.96;100334.19;10335835;28;96713;-83
2022/04/15 10:11:01;;;;;;;11.15;4.65;;;19.40;44.90;;;18.36;30.79;100346.41;10318074;28;96515;-83
2022/04/15 10:16:06;;;;;;;8.30;3.88;;;19.50;44.00;;;18.48;31.18;100359.19;10370343;28;96685;-83
2022/04/15 10:21:09;;;;;;;7.68;3.95;;;19.60;43.60;;;18.51;31.67;100348.78;10343603;28;96680;-83
2022/04/15 10:26:12;;;;;;;9.45;3.38;;;19.60;44.40;;;18.49;31.12;100342.00;10339399;28;96741;-83
2022/04/15 10:31:16;;;;;;;9.00;4.30;;;19.60;44.10;;;18.43;30.12;100344.50;10343017;28;98310;-83
2022/04/15 10:36:23;;;;;;;5.30;3.28;;;19.60;43.40;;;18.36;31.35;100332.97;10358886;28;96671;-82
2022/04/15 10:41:26;;;;;;;6.10;3.22;;;19.60;43.70;;;18.25;33.28;100339.00;10337971;28;98372;-82
2022/04/15 10:46:30;;;;;;;5.78;3.20;;;19.50;44.60;;;18.30;35.95;100338.38;10318446;28;97591;-83
2022/04/15 10:51:34;;;;;;;6.25;3.53;;;19.50;46.40;;;18.35;34.33;100338.53;10357044;28;97075;-83
2022/04/15 10:57:18;;;;;;;11.02;4.40;;;19.50;45.90;;;18.49;33.05;100334.75;10327769;28;97261;-83
2022/04/15 11:02:22;;;;;;;9.23;3.85;;;19.60;46.70;;;18.47;33.29;100342.19;10336818;28;96684;-83
2022/04/15 11:07:29;;;;;;;17.10;7.68;;;19.60;46.20;;;18.53;33.09;100335.97;10336289;28;96785;-83
2022/04/15 11:12:37;;;;;;;7.85;3.88;;;19.60;46.00;;;18.56;33.08;100329.31;10304958;28;96639;-83
2022/04/15 11:17:47;;;;;;;6.57;3.60;;;19.80;45.70;;;18.65;32.86;100336.06;10311505;28;98372;-83
2022/04/15 11:22:50;;;;;;;6.63;3.47;;;19.80;45.50;;;18.67;32.76;100336.72;10333003;28;98320;-83
2022/04/15 11:28:03;;;;;;;6.65;3.72;;;19.90;45.40;;;18.56;32.51;100335.53;10313773;28;98165;-83
2022/04/15 11:33:06;;;;;;;10.05;5.07;;;19.70;45.40;;;18.47;33.49;100336.81;10308413;28;96781;-83
2022/04/15 11:38:14;;;;;;;7.38;4.18;;;19.60;45.90;;;18.32;33.49;100344.34;10311558;28;96691;-83
2022/04/15 11:43:25;;;;;;;9.05;3.90;;;19.50;46.20;;;18.10;35.07;100325.00;10321381;28;97030;-82
2022/04/15 11:48:28;;;;;;;6.60;3.58;;;19.20;47.10;;;18.17;35.53;100331.16;10320809;28;97552;-83
2022/04/15 11:53:30;;;;;;;5.47;2.80;;;19.20;47.80;;;18.24;35.96;100332.00;10307455;28;97277;-85
2022/04/15 11:58:35;;;;;;;5.20;2.78;;;19.20;48.10;;;18.08;36.56;100333.28;10328275;28;98072;-85
2022/04/15 12:03:43;;;;;;;6.60;3.05;;;19.10;49.10;;;17.72;37.00;100341.06;10320912;28;98891;-84
2022/04/15 12:08:47;;;;;;;5.18;2.67;;;18.80;49.40;;;17.30;40.58;100349.38;10352426;28;96964;-84
2022/04/15 12:14:02;;;;;;;6.55;2.80;;;18.50;51.50;;;16.74;42.74;100363.22;10320829;28;97178;-83
2022/04/15 12:19:07;;;;;;;7.55;2.83;;;18.00;54.10;;;16.35;44.33;100360.38;10326928;28;97306;-83
2022/04/15 12:24:23;;;;;;;5.57;3.42;;;17.60;55.00;;;16.07;45.14;100342.53;10306273;28;96907;-83
2022/04/15 12:35:13;;;;;;;5.57;3.28;;;17.20;57.00;;;15.67;47.44;100345.03;10297084;28;96755;-83
2022/04/15 12:40:19;;;;;;;7.38;4.25;;;16.90;58.60;;;15.46;47.81;100339.72;10346947;27;96772;-83
2022/04/15 12:45:26;;;;;;;10.32;4.35;;;16.70;59.00;;;15.24;48.03;100352.34;10298094;28;96619;-83
2022/04/15 12:50:35;;;;;;;5.57;3.30;;;16.50;59.50;;;15.16;49.16;100344.44;10345706;28;97040;-83
2022/04/15 12:55:38;;;;;;;10.18;4.38;;;16.40;60.60;;;15.24;48.84;100337.13;10313906;28;96691;-84
2022/04/15 13:00:41;;;;;;;10.85;3.42;;;16.30;60.60;;;15.47;48.28;100328.84;10342407;28;96539;-83
2022/04/15 13:05:49;;;;;;;5.47;3.20;;;16.50;60.70;;;15.72;47.67;100317.66;10300307;28;96480;-83
2022/04/15 13:10:53;;;;;;;6.20;3.00;;;16.70;60.70;;;15.91;48.56;100322.28;10329847;28;96995;-83
2022/04/15 13:16:11;;;;;;;6.72;4.43;;;16.80;61.50;;;16.06;47.99;100309.56;10309949;28;96624;-83
2022/04/15 13:21:15;;;;;;;5.45;2.88;;;17.00;61.30;;;16.09;48.07;100315.56;10316377;28;96737;-82
2022/04/15 13:26:18;;;;;;;5.85;2.83;;;17.00;61.00;;;16.10;48.46;100318.03;10329140;28;96686;-83
2022/04/15 13:31:21;;;;;;;5.03;3.17;;;17.10;61.50;;;16.25;48.52;100321.38;10329020;28;96450;-83
2022/04/15 13:36:24;;;;;;;5.07;3.30;;;17.20;61.60;;;16.41;48.66;100312.13;10326903;28;96604;-83
2022/04/15 13:41:27;;;;;;;7.13;3.78;;;17.40;61.90;;;16.54;48.15;100314.00;10303667;28;96521;-83
2022/04/15 13:46:30;;;;;;;8.70;4.30;;;17.50;61.40;;;16.59;47.67;100316.91;10304256;28;96698;-83
2022/04/15 13:51:33;;;;;;;23.40;9.73;;;17.50;61.30;;;16.64;47.48;100324.34;10305519;28;96390;-83
2022/04/15 13:56:41;;;;;;;12.07;6.43;;;17.60;61.20;;;16.59;47.81;100322.28;10331219;28;96519;-83
2022/04/15 14:01:46;;;;;;;9.27;5.78;;;17.60;61.40;;;16.60;48.40;100318.56;10322377;28;96584;-83
2022/04/15 14:06:52;;;;;;;9.35;5.60;;;17.60;62.00;;;16.68;48.38;100315.69;10314768;28;98025;-84
2022/04/15 14:11:55;;;;;;;9.45;5.70;;;17.70;61.90;;;16.82;48.94;100316.56;10303748;28;96588;-84
2022/04/15 14:16:58;;;;;;;6.63;4.72;;;17.80;61.90;;;16.90;48.04;100308.28;10346632;28;96679;-83
2022/04/15 14:22:01;;;;;;;8.38;4.18;;;17.90;61.70;;;16.95;47.92;100299.63;10312040;28;96498;-83
2022/04/15 14:27:05;;;;;;;9.77;5.00;;;18.00;61.50;;;16.97;47.93;100298.41;10317933;28;98338;-83
2022/04/15 14:32:08;;;;;;;7.40;4.80;;;18.00;61.60;;;17.00;48.24;100289.09;10326863;28;96608;-84
2022/04/15 14:37:11;;;;;;;7.70;4.88;;;18.00;61.60;;;17.08;48.75;100283.50;10318888;28;96821;-84
2022/04/15 14:42:16;;;;;;;6.80;4.82;;;18.10;62.10;;;17.22;49.18;100270.91;10335034;28;96554;-84
2022/04/15 14:47:19;;;;;;;8.73;4.40;;;18.20;63.00;;;17.36;49.57;100269.84;10318711;28;97077;-83
2022/04/15 14:52:22;;;;;;;9.85;4.93;;;18.40;63.30;;;17.68;49.56;100278.81;10342878;28;96797;-84
2022/04/15 14:57:24;;;;;;;7.72;4.40;;;18.60;63.90;;;17.93;48.60;100273.56;10318056;28;96641;-82
2022/04/15 15:02:27;;;;;;;6.70;4.22;;;18.90;63.30;;;17.99;49.07;100279.97;10333041;28;98232;-84
2022/04/15 15:07:30;;;;;;;8.65;4.78;;;19.00;63.20;;;17.97;49.67;100282.06;10348668;28;96790;-84
2022/04/15 15:12:34;;;;;;;7.75;4.15;;;19.00;63.60;;;17.99;49.91;100278.09;10352099;28;97374;-84
2022/04/15 15:17:37;;;;;;;6.53;4.45;;;19.00;64.10;;;17.97;50.19;100274.81;10343637;28;98724;-83
2022/04/15 15:22:41;;;;;;;8.10;3.70;;;19.00;64.60;;;17.91;50.64;100257.66;10377882;28;96700;-83
2022/04/15 15:33:11;;;;;;;6.80;3.70;;;18.80;65.10;;;17.69;51.02;100242.00;10347324;28;96515;-83
2022/04/15 15:38:23;;;;;;;;;;;18.70;65.40;;;17.70;51.48;100249.06;10359299;28;96525;-83
2022/04/15 15:43:26;;;;;;;5.13;3.63;;;18.70;66.80;;;18.03;50.75;100244.38;10329632;28;96815;-84
2022/04/15 15:48:29;;;;;;;7.97;4.20;;;18.90;65.90;;;18.53;48.86;100231.03;10350856;28;97567;-82
2022/04/15 15:53:33;;;;;;;9.10;4.30;;;19.30;64.90;;;18.60;48.68;100225.59;10342027;28;96555;-84
2022/04/15 15:58:36;;;;;;;6.72;3.92;;;19.40;64.00;;;19.07;47.91;100207.13;10336532;28;96590;-83
2022/04/15 16:03:39;;;;;;;8.18;3.28;;;19.90;64.10;;;19.27;46.83;100215.03;10337809;28;97385;-84
2022/04/15 16:08:42;;;;;;;3.97;2.80;;;20.10;62.30;;;19.41;45.92;100203.84;10333024;28;98089;-85
2022/04/15 16:13:45;;;;;;;6.97;2.75;;;20.20;61.40;;;19.13;46.51;100209.78;10336252;28;96460;-84
2022/04/15 16:18:48;;;;;;;5.38;2.88;;;20.00;61.30;;;18.61;46.40;100217.28;10350129;28;97983;-86
2022/04/15 16:23:51;;;;;;;4.60;2.80;;;19.70;61.10;;;18.21;47.28;100211.38;10345134;28;96612;-87
2022/04/15 16:28:56;;;;;;;4.57;3.42;;;19.30;61.70;;;17.88;48.49;100209.72;10392282;28;96541;-86
2022/04/15 16:34:00;;;;;;;4.90;2.92;;;19.00;63.20;;;17.75;49.78;100206.25;10372741;28;97069;-83
2022/04/15 16:39:03;;;;;;;7.55;4.40;;;18.80;63.70;;;17.70;49.85;100200.69;10362482;28;96548;-83
2022/04/15 16:44:08;;;;;;;6.60;3.72;;;18.70;64.30;;;17.63;50.25;100201.56;10294680;28;96543;-84
2022/04/15 16:49:12;;;;;;;4.93;3.10;;;18.60;64.90;;;17.57;50.39;100201.56;10329422;28;98061;-84
2022/04/15 16:54:18;;;;;;;4.18;2.83;;;18.60;65.00;;;17.44;50.60;100196.25;10348623;28;96686;-84
2022/04/15 16:59:22;;;;;;;5.85;3.42;;;18.50;65.00;;;17.27;50.64;100188.69;10334822;28;96639;-83
2022/04/15 17:04:25;;;;;;;6.35;3.15;;;18.40;65.20;;;17.05;51.04;100196.16;10347512;28;96717;-83
2022/04/15 17:09:27;;;;;;;5.70;3.67;;;18.20;65.30;;;16.82;51.63;100193.09;10336967;28;96967;-83
2022/04/15 17:14:31;;;;;;;10.48;4.40;;;18.00;66.00;;;16.60;52.55;100203.19;10309296;28;96675;-83
2022/04/15 17:19:35;;;;;;;7.53;3.72;;;17.80;66.20;;;16.33;52.71;100203.19;10369695;28;96669;-83
2022/04/15 17:24:38;;;;;;;7.90;3.10;;;17.60;66.40;;;16.07;53.59;100208.50;10386699;28;96609;-83
2022/04/15 17:29:41;;;;;;;5.18;3.60;;;17.40;67.10;;;15.83;53.73;100214.44;10369651;28;96384;-83
2022/04/15 17:34:44;;;;;;;6.88;3.75;;;17.20;67.20;;;15.57;54.61;100220.50;10359653;28;97980;-83
2022/04/15 17:39:47;;;;;;;6.05;4.57;;;16.90;67.60;;;15.24;55.25;100227.34;10340224;28;96612;-82
2022/04/15 17:44:50;;;;;;;6.82;3.85;;;16.70;68.00;;;14.95;56.11;100227.59;10303957;28;96749;-82
2022/04/15 17:49:53;;;;;;;5.20;3.30;;;16.40;68.70;;;14.66;56.92;100241.97;10334234;28;96617;-83
2022/04/15 17:54:57;;;;;;;6.70;3.50;;;16.20;69.30;;;14.44;57.44;100241.94;10311472;28;96721;-83
2022/04/15 18:00:00;;;;;;;7.10;3.75;;;16.00;70.00;;;14.26;58.05;100254.09;10330340;28;96807;-83
2022/04/15 18:05:04;;;;;;;7.10;3.97;;;15.70;70.60;;;14.06;58.53;100260.06;10327309;28;97969;-82
2022/04/15 18:10:08;;;;;;;5.30;3.63;;;15.60;71.20;;;13.89;59.54;100267.50;10341035;28;98378;-83
2022/04/15 18:15:11;;;;;;;6.97;3.77;;;15.40;71.90;;;13.77;60.41;100268.16;10340650;28;97512;-83
2022/04/15 18:20:14;;;;;;;6.00;3.90;;;15.20;72.40;;;13.66;60.54;100272.13;10316767;28;97565;-82
2022/04/15 18:25:19;;;;;;;7.80;3.60;;;15.10;73.40;;;13.56;60.84;100280.44;10346133;28;96746;-82
2022/04/15 18:30:23;;;;;;;6.60;3.93;;;14.90;73.70;;;13.47;61.00;100276.19;10352325;28;96738;-82
2022/04/15 18:35:26;;;;;;;6.20;4.03;;;14.90;74.20;;;13.44;60.77;100281.09;10369313;28;96756;-82
2022/04/15 18:40:29;;;;;;;5.60;3.47;;;14.80;74.80;;;13.39;60.30;100279.78;10343079;28;97735;-82
2022/04/15 18:45:32;;;;;;;7.77;4.43;;;14.80;74.50;;;13.32;59.57;100278.06;10377848;28;96882;-82
2022/04/15 18:56:01;;;;;;;4.83;3.50;;;14.60;74.10;;;13.15;59.15;100285.38;10344211;28;96693;-83
2022/04/15 19:01:04;;;;;;;4.53;2.90;;;14.50;74.40;;;13.10;59.04;100277.06;10333420;28;97214;-83
2022/04/15 19:06:08;;;;;;;5.67;2.83;;;14.40;74.50;;;13.04;58.80;100296.47;10368604;28;96696;-83
2022/04/15 19:11:11;;;;;;;3.83;2.67;;;14.30;74.30;;;13.01;58.33;100302.16;10322691;28;96823;-83
2022/04/15 19:16:14;;;;;;;4.23;2.73;;;14.30;74.40;;;13.02;58.06;100304.66;10304444;28;96505;-83
2022/04/15 19:21:17;;;;;;;4.67;3.00;;;14.30;74.20;;;13.07;58.07;100302.28;10368436;28;98292;-83
2022/04/15 19:26:21;;;;;;;4.30;2.73;;;14.30;74.20;;;13.15;57.58;100303.22;10375498;28;96502;-83
2022/04/15 19:31:25;;;;;;;4.50;2.70;;;14.30;73.80;;;13.24;56.88;100302.97;10321385;28;96882;-83
2022/04/15 19:36:28;;;;;;;2.90;2.40;;;14.40;73.30;;;13.26;57.14;100300.97;10336274;28;96700;-83
2022/04/15 19:41:32;;;;;;;2.93;2.03;;;14.40;73.30;;;13.26;56.97;100292.13;10335281;28;96902;-83
2022/04/15 19:46:35;;;;;;;4.60;2.60;;;14.40;73.10;;;13.20;57.17;100296.31;10347485;28;97020;-83
2022/04/15 19:51:42;;;;;;;5.03;3.13;;;14.40;73.20;;;13.12;57.33;100291.88;10334372;28;96966;-82
2022/04/15 20:02:30;;;;;;;3.87;2.97;;;14.30;73.50;;;13.05;57.64;100290.13;10332629;28;96860;-82
2022/04/15 20:07:34;;;;;;;3.40;2.50;;;14.30;73.70;;;12.97;58.01;100284.88;10324525;28;96717;-82
2022/04/15 20:12:37;;;;;;;4.20;2.90;;;14.20;73.90;;;12.90;58.08;100297.28;10307861;28;96857;-82
2022/04/15 20:17:41;;;;;;;3.93;2.70;;;14.20;74.10;;;12.80;58.49;100308.19;10326053;28;96726;-82
2022/04/15 20:22:44;;;;;;;5.37;3.43;;;14.10;74.30;;;12.74;58.70;100311.56;10355513;28;97575;-82
2022/04/15 20:27:49;;;;;;;6.57;4.20;;;14.00;74.70;;;12.71;58.99;100314.59;10338074;28;96659;-83
2022/04/15 20:32:52;;;;;;;6.33;3.60;;;14.00;75.10;;;12.70;59.47;100313.75;10362873;28;98289;-82
2022/04/15 20:37:56;;;;;;;5.10;3.47;;;13.90;75.70;;;12.68;59.88;100312.28;10336339;28;96519;-81
2022/04/15 20:42:59;;;;;;;7.97;3.50;;;13.90;76.40;;;12.64;60.30;100309.16;10326619;28;96983;-82
2022/04/15 20:49:50;;;;;;;4.73;3.40;;;13.90;76.50;;;12.59;60.27;100317.69;10349578;28;96750;-82
2022/04/15 20:53:26;;;;;;;6.37;3.50;;;13.80;76.90;;;12.53;60.68;100317.56;10323778;28;97470;-82
2022/04/15 20:58:29;;;;;;;5.03;3.33;;;13.80;77.70;;;12.44;60.86;100332.78;10331976;28;96639;-82
2022/04/15 21:03:32;;;;;;;6.00;4.40;;;13.70;77.90;;;12.35;61.47;100323.16;10318512;28;96860;-82
2022/04/15 21:08:35;;;;;;;6.30;4.20;;;13.60;78.60;;;12.34;61.57;100324.19;10345705;28;96594;-82
2022/04/15 21:13:39;;;;;;;4.90;3.20;;;13.60;79.50;;;12.32;62.01;100326.19;10364330;28;96789;-83
2022/04/15 21:18:42;;;;;;;5.97;3.50;;;13.60;79.90;;;12.32;62.03;100336.84;10351718;28;96647;-82
2022/04/15 21:23:48;;;;;;;4.50;3.37;;;13.50;80.10;;;12.34;61.88;100332.19;10350273;28;96497;-82